PWSweather.com
Personal Weather Stations
Station Observations
ABCSTATION
Croke Park City Centre Dublin, DublinIE Dublin

Croke Park City Centre DublinDublinIE Dublin

Lat: 53.3585133, Lon: -6.2522999000000254

Elevation: 30

Station Type: Weather Station Wireless Professional WS2083

http://www.abcweatherstation.com

Latest ConditionsUpdated 2:35:00 AM GMT Sunday, Dec 16, 2018
Currently Today's Max Today's Min Today's Average
Temperature 42.3°F5.7°C 43.3°F6.3°C 42.3°F5.7°C 42.8°F6.0°C
Dew Point 37.2°F2.9°C 38.2°F3.4°C 37.2°F2.9°C 37.7°F3.2°C
Winds 1.6 mph SW2.6 kmh SW 4.5 mph -7.2 kmh - - 2.6 mph 4.2 kmh
Wind Gusts 7.6 mph12.2 kmh 11.4 mph18.3 kmh - -
Humidity 82% 83% 81% 82%
Pressure 29.52 in999.7 mb 29.52 in999.7 mb 29.48 in998.3 mb -
Hour Temp Dew Point Humidity Winds Wind Gusts Pressure Precip Precip Rate Daily Precip Total
02:35 AM 42.3°F5.7°C 37.2°F2.9°C 82% 1.6 mph SW2.6 kmh SW 7.6 mph12.2 kmh 29.52 in999.7 mb 0.00 in0.0 mm 0.00 in0.0 mm 0.00 in0.0 mm
02:30 AM 42.4°F5.8°C 37.3°F2.9°C 82% 0.7 mph SSE1.1 kmh SSE 8.3 mph13.4 kmh 29.52 in999.7 mb 0.00 in0.0 mm 0.00 in0.0 mm 0.00 in0.0 mm
02:25 AM 42.6°F5.9°C 37.8°F3.2°C 83% 2.2 mph SE3.5 kmh SE 8.3 mph13.4 kmh 29.52 in999.7 mb 0.00 in0.0 mm 0.00 in0.0 mm 0.00 in0.0 mm
02:20 AM 42.6°F5.9°C 37.8°F3.2°C 83% 1.6 mph W2.6 kmh W 7.6 mph12.2 kmh 29.52 in999.7 mb 0.00 in0.0 mm 0.00 in0.0 mm 0.00 in0.0 mm
02:15 AM 42.3°F5.7°C 37.5°F3.1°C 83% 3.8 mph NE6.1 kmh NE 10.7 mph17.2 kmh 29.52 in999.7 mb 0.00 in0.0 mm 0.00 in0.0 mm 0.00 in0.0 mm
02:10 AM 42.3°F5.7°C 37.5°F3.1°C 83% 3.1 mph SE5.0 kmh SE 10.7 mph17.2 kmh 29.52 in999.7 mb 0.00 in0.0 mm 0.00 in0.0 mm 0.00 in0.0 mm
02:05 AM 42.3°F5.7°C 37.5°F3.1°C 83% 2.2 mph SE3.5 kmh SE 6.9 mph11.1 kmh 29.51 in999.3 mb 0.00 in0.0 mm 0.00 in0.0 mm 0.00 in0.0 mm
02:00 AM 42.3°F5.7°C 37.5°F3.1°C 83% 0.7 mph W1.1 kmh W 4.5 mph7.2 kmh 29.51 in999.3 mb 0.00 in0.0 mm 0.00 in0.0 mm 0.00 in0.0 mm
01:55 AM 42.4°F5.8°C 37.7°F3.2°C 83% 1.6 mph NW2.6 kmh NW 6.0 mph9.7 kmh 29.51 in999.3 mb 0.00 in0.0 mm 0.00 in0.0 mm 0.00 in0.0 mm
01:50 AM 42.6°F5.9°C 37.8°F3.2°C 83% 2.2 mph SSE3.5 kmh SSE 6.0 mph9.7 kmh 29.52 in999.7 mb 0.00 in0.0 mm 0.00 in0.0 mm 0.00 in0.0 mm
01:45 AM 42.6°F5.9°C 37.8°F3.2°C 83% 0.7 mph S1.1 kmh S 7.6 mph12.2 kmh 29.51 in999.3 mb 0.00 in0.0 mm 0.00 in0.0 mm 0.00 in0.0 mm
01:40 AM 42.6°F5.9°C 37.8°F3.2°C 83% 1.6 mph SSE2.6 kmh SSE 9.2 mph14.8 kmh 29.52 in999.7 mb 0.00 in0.0 mm 0.00 in0.0 mm 0.00 in0.0 mm
01:35 AM 42.8°F6.0°C 37.7°F3.2°C 82% 2.2 mph S3.5 kmh S 9.2 mph14.8 kmh 29.52 in999.7 mb 0.00 in0.0 mm 0.00 in0.0 mm 0.00 in0.0 mm
01:30 AM 42.8°F6.0°C 37.7°F3.2°C 82% 3.8 mph S6.1 kmh S 8.3 mph13.4 kmh 29.51 in999.3 mb 0.00 in0.0 mm 0.00 in0.0 mm 0.00 in0.0 mm
01:25 AM 42.8°F6.0°C 37.7°F3.2°C 82% 2.2 mph ESE3.5 kmh ESE 8.3 mph13.4 kmh 29.51 in999.3 mb 0.00 in0.0 mm 0.00 in0.0 mm 0.00 in0.0 mm
01:20 AM 42.8°F6.0°C 37.7°F3.2°C 82% 1.6 mph E2.6 kmh E 8.3 mph13.4 kmh 29.50 in999.0 mb 0.00 in0.0 mm 0.00 in0.0 mm 0.00 in0.0 mm
01:15 AM 42.8°F6.0°C 37.7°F3.2°C 82% 1.6 mph S2.6 kmh S 9.8 mph15.8 kmh 29.50 in999.0 mb 0.00 in0.0 mm 0.00 in0.0 mm 0.00 in0.0 mm
01:10 AM 42.8°F6.0°C 37.7°F3.2°C 82% 3.8 mph SE6.1 kmh SE 9.8 mph15.8 kmh 29.50 in999.0 mb 0.00 in0.0 mm 0.00 in0.0 mm 0.00 in0.0 mm
01:05 AM 42.8°F6.0°C 37.7°F3.2°C 82% 2.2 mph SE3.5 kmh SE 9.2 mph14.8 kmh 29.50 in999.0 mb 0.00 in0.0 mm 0.00 in0.0 mm 0.00 in0.0 mm
01:00 AM 42.8°F6.0°C 37.7°F3.2°C 82% 3.1 mph S5.0 kmh S 9.2 mph14.8 kmh 29.50 in999.0 mb 0.00 in0.0 mm 0.00 in0.0 mm 0.00 in0.0 mm
12:55 AM 43.0°F6.1°C 37.9°F3.3°C 82% 4.5 mph SW7.2 kmh SW 11.4 mph18.3 kmh 29.50 in999.0 mb 0.00 in0.0 mm 0.00 in0.0 mm 0.00 in0.0 mm
12:50 AM 43.0°F6.1°C 37.9°F3.3°C 82% 1.6 mph SW2.6 kmh SW 11.4 mph18.3 kmh 29.50 in999.0 mb 0.00 in0.0 mm 0.00 in0.0 mm 0.00 in0.0 mm
12:45 AM 43.0°F6.1°C 37.9°F3.3°C 82% 4.5 mph SSW7.2 kmh SSW 8.3 mph13.4 kmh 29.50 in999.0 mb 0.00 in0.0 mm 0.00 in0.0 mm 0.00 in0.0 mm
12:40 AM 42.8°F6.0°C 38.0°F3.3°C 83% 3.8 mph S6.1 kmh S 7.6 mph12.2 kmh 29.50 in999.0 mb 0.00 in0.0 mm 0.00 in0.0 mm 0.00 in0.0 mm
12:35 AM 42.8°F6.0°C 38.0°F3.3°C 83% 3.8 mph S6.1 kmh S 9.2 mph14.8 kmh 29.50 in999.0 mb 0.00 in0.0 mm 0.00 in0.0 mm 0.00 in0.0 mm
12:30 AM 43.0°F6.1°C 38.2°F3.4°C 83% 3.8 mph SSE6.1 kmh SSE 9.2 mph14.8 kmh 29.50 in999.0 mb 0.00 in0.0 mm 0.00 in0.0 mm 0.00 in0.0 mm
12:25 AM 43.0°F6.1°C 37.9°F3.3°C 82% 3.1 mph SE5.0 kmh SE 8.3 mph13.4 kmh 29.50 in999.0 mb 0.00 in0.0 mm 0.00 in0.0 mm 0.00 in0.0 mm
12:20 AM 43.2°F6.2°C 37.7°F3.2°C 81% 2.2 mph SE3.5 kmh SE 6.9 mph11.1 kmh 29.50 in999.0 mb 0.00 in0.0 mm 0.00 in0.0 mm 0.00 in0.0 mm
12:15 AM 43.3°F6.3°C 37.9°F3.3°C 81% 3.1 mph N5.0 kmh N 8.3 mph13.4 kmh 29.49 in998.6 mb 0.00 in0.0 mm 0.00 in0.0 mm 0.00 in0.0 mm
12:10 AM 43.3°F6.3°C 37.9°F3.3°C 81% 3.1 mph NE5.0 kmh NE 8.3 mph13.4 kmh 29.49 in998.6 mb 0.00 in0.0 mm 0.00 in0.0 mm 0.00 in0.0 mm
12:05 AM 43.3°F6.3°C 37.9°F3.3°C 81% 4.5 mph SE7.2 kmh SE 9.8 mph15.8 kmh 29.49 in998.6 mb 0.00 in0.0 mm 0.00 in0.0 mm 0.00 in0.0 mm
12:00 AM 43.2°F6.2°C 37.7°F3.2°C 81% 3.1 mph SE5.0 kmh SE 9.8 mph15.8 kmh 29.48 in998.3 mb 0.00 in0.0 mm 0.00 in0.0 mm 0.00 in0.0 mm